Reno/Tahoe Intl Information

FAA: RNO - ICAO: KRNO

Reno/Tahoe Intl (Airport) Location

State Nevada
County Washoe
City Reno
Reno/Tahoe Intl (Airport) is 3 miles southeast of Reno, NV.
Latitude 39-29-56.8000N
Longitude 119-46-05.2000W
Elevation 4,414ft

Reno/Tahoe Intl METARs

METAR KRNO 250155Z 07003KT 10SM -RA BKN025 OVC060 10/08 A2955 RMK AO2 SLP980 P0002 T01000083 $
Altimeter 29.55"
Temperature 10.0°C (50.0°F)
Wind 70° at 3KT
Clouds broken at 2,500ft overcast at 6,000ft
Visibility 10.0mi
Time observed: 2021-10-25T01:55:00Z

Reno/Tahoe Intl (Airport) Details

Status Operational
Activation November 1938
Ownership Public
Usage Public
Chart SAN FRANCISCO
ATC on-site Yes
Beacon schedule sunset-sunrise
Beacon color clear green

Reno/Tahoe Intl (Airport) Contacts

Owner RENO-TAHOE AIRPORT AUTHORITY
Owner address P O BOX 12490, RENO, NV 89510
Owner phone 775-328-6400
Manager CHRIS JOHNSON
Manager address 1146 AIRPORT ROAD, MINDEN, NV 89423
Manager phone 775-782-9871

Reno/Tahoe Intl Radio Frequencies

Reno/Tahoe Intl (Airport) Radio Frequencies

UNICOM 122.95
Common traffic advisory frequency (CTAF) N/A